Latest Weather Observations for Cabramurra

IDN60901

Issued at 5:45 pm EDT Saturday 1 November 2014 (issued every 10 minutes, with the page automatically refreshed every 10 minutes)

About weather observations | Map of Canberra area stations | Latest observations for Canberra area | Other Formats
Station Details ID: 072161 Name: CABRAMURRA SMHEA AWS Lat: -35.94 Lon: 148.38 Height: 1482.4 m
Data from the previous 72 hours. | See also: Recent months at Cabramurra
Date/Time
EDT
Tmp

°C
App
Tmp
°C
Dew
Point
°C
Rel
Hum
%
Delta-T

°C
Wind Press
QNH
hPa
Press
MSL
hPa
Rain
since
9 am
mm
Dir
 
Spd
km/h
Gust
km/h
Spd
kts
Gust
kts
01/05:30pm 6.5 -0.6 6.4 99 0.0 W 33 61 18 33 - - 13.4
01/05:03pm 6.5 -1.7 6.4 99 0.0 WNW 39 59 21 32 - - 13.4
01/05:00pm 6.5 -1.7 6.4 99 0.0 WNW 39 56 21 30 - - 13.4
01/04:39pm 6.5 -1.0 6.4 99 0.0 WNW 35 54 19 29 - - 13.2
01/04:30pm 6.6 -0.8 6.6 100 0.0 WNW 35 52 19 28 - - 13.2
01/04:24pm 6.6 -0.3 6.6 100 0.0 WNW 32 52 17 28 - - 13.2
01/04:00pm 6.7 -0.3 6.7 100 0.0 WNW 33 46 18 25 - - 13.2
01/03:30pm 6.9 -1.6 6.9 100 0.0 W 41 65 22 35 - - 13.2
01/03:00pm 6.4 -2.8 6.4 100 0.0 W 44 72 24 39 - - 13.2
01/02:30pm 7.4 0.1 7.4 100 0.0 WNW 35 57 19 31 - - 11.6
01/02:00pm 7.6 0.0 7.6 100 0.0 W 37 56 20 30 - - 10.6
01/01:39pm 7.8 -3.0 7.8 100 0.0 WNW 54 72 29 39 - - 10.0
01/01:38pm 7.8 -3.3 7.8 100 0.0 WNW 56 72 30 39 - - 9.8
01/01:30pm 8.4 1.8 8.4 100 0.0 WNW 33 61 18 33 - - 9.0
01/01:13pm 8.9 2.4 8.9 100 0.0 WNW 33 56 18 30 - - 7.2
01/01:00pm 8.8 4.0 8.8 100 0.0 NW 24 43 13 23 - - 5.8
01/12:30pm 8.7 3.1 8.7 100 0.0 WNW 28 46 15 25 - - 3.6
01/12:17pm 8.8 3.2 8.7 99 0.1 W 28 46 15 25 - - 1.8
01/12:13pm 8.8 3.2 8.7 99 0.1 NW 28 35 15 19 - - 1.6
01/12:00pm 9.2 1.2 9.1 99 0.1 W 41 65 22 35 - - 0.4
01/11:30am 11.7 4.2 7.8 77 2.1 W 37 59 20 32 - - 0.0
01/11:00am 12.2 4.4 8.3 77 2.1 WNW 39 61 21 33 - - 0.0
01/10:30am 12.7 3.6 8.6 76 2.2 WNW 46 69 25 37 - - 0.0
01/10:00am 13.5 4.5 8.8 73 2.6 WNW 46 67 25 36 - - 0.0
01/09:38am 12.9 3.2 9.0 77 2.1 WNW 50 69 27 37 - - 0.0
01/09:36am 12.9 1.9 9.0 77 2.1 WNW 57 69 31 37 - - 0.0
01/09:30am 13.1 6.4 9.7 80 1.9 NW 35 61 19 33 - - 0.0
01/09:00am 12.5 5.1 10.0 85 1.4 NW 39 69 21 37 - - -
01/08:30am 12.4 5.8 10.0 85 1.3 NW 35 63 19 34 - - -
01/08:00am 12.8 4.6 9.6 81 1.8 NNW 43 69 23 37 - - -
01/07:30am 13.3 5.8 9.4 77 2.1 NW 39 65 21 35 - - -
01/07:10am 13.7 4.5 9.4 75 2.4 NNW 48 82 26 44 - - -
01/07:08am 12.8 3.9 9.1 78 2.0 NW 46 59 25 32 - - -
01/07:00am 12.9 4.4 9.2 78 2.0 N 44 70 24 38 - - -
01/06:30am 12.6 4.3 9.2 80 1.9 N 43 69 23 37 - - -
01/06:00am 12.5 4.0 9.1 80 1.9 N 44 70 24 38 - - -
01/05:30am 12.4 4.0 8.9 79 1.9 N 43 65 23 35 - - -
01/05:03am 12.6 4.3 7.9 73 2.5 N 41 65 22 35 - - -
01/05:00am 12.7 4.0 7.8 72 2.6 N 43 57 23 31 - - -
01/04:30am 13.0 3.8 7.9 71 2.7 N 46 70 25 38 - - -
01/04:00am 12.9 4.7 6.7 66 3.2 N 39 57 21 31 - - -
01/03:49am 13.0 4.2 5.4 60 3.9 N 41 59 22 32 - - -
01/03:30am 13.6 4.3 3.1 49 5.1 N 41 57 22 31 - - -
01/03:00am 14.9 5.8 -0.4 35 7.0 N 37 57 20 31 - - -
01/02:30am 16.1 7.1 -2.4 28 8.2 NNW 35 56 19 30 - - -
01/02:01am 17.8 8.4 -2.5 25 9.1 NNW 37 56 20 30 - - 0.0
01/02:00am 17.8 8.1 -2.5 25 9.1 NNW 39 56 21 30 - - 0.0
01/01:31am 18.2 8.8 -2.7 24 9.4 NNW 37 56 20 30 - - 0.0
01/01:30am 18.2 8.8 -2.7 24 9.4 NNW 37 54 20 29 - - 0.0
01/01:03am 18.3 9.2 -3.2 23 9.5 NNW 35 54 19 29 - - 0.0
01/01:00am 18.2 9.1 -3.2 23 9.5 NNW 35 52 19 28 - - 0.0
01/12:30am 18.0 9.5 -3.4 23 9.4 NNW 32 46 17 25 - - 0.0
01/12:00am 17.6 9.9 -2.6 25 9.0 NNW 28 37 15 20 - - 0.0
 
Date/Time
EDT
Tmp

°C
App
Tmp
°C
Dew
Point
°C
Rel
Hum
%
Delta-T

°C
Wind Press
QNH
hPa
Press
MSL
hPa
Rain
since
9 am
mm
Dir
 
Spd
km/h
Gust
km/h
Spd
kts
Gust
kts
31/11:30pm 17.5 10.3 -1.7 27 8.7 N 26 35 14 19 - - 0.0
31/11:00pm 17.7 10.8 -2.6 25 9.1 NNW 24 33 13 18 - - 0.0
31/10:30pm 18.1 11.2 -2.8 24 9.3 NNW 24 39 13 21 - - 0.0
31/10:00pm 18.5 11.5 -3.6 22 9.7 NW 24 35 13 19 - - 0.0
31/09:45pm 18.8 11.1 -3.3 22 9.8 NW 28 50 15 27 - - 0.0
31/09:30pm 18.8 11.1 -3.3 22 9.8 NW 28 43 15 23 - - 0.0
31/09:00pm 18.9 10.5 -2.7 23 9.7 NW 32 56 17 30 - - 0.0
31/08:54pm 18.8 10.8 -2.2 24 9.5 NW 30 56 16 30 - - 0.0
31/08:30pm 18.1 11.8 -1.2 27 8.9 WNW 22 35 12 19 - - 0.0
31/08:00pm 18.3 12.4 -1.0 27 8.9 WNW 20 33 11 18 - - 0.0
31/07:30pm 18.9 11.5 -1.0 26 9.3 WNW 28 35 15 19 - - 0.0
31/07:00pm 19.5 11.6 -1.6 24 9.8 NW 30 44 16 24 - - 0.0
31/06:30pm 19.6 12.5 -1.5 24 9.8 WNW 26 39 14 21 - - 0.0
31/06:14pm 20.0 12.1 -1.7 23 10.1 NW 30 50 16 27 - - 0.0
31/06:00pm 20.1 13.0 -1.1 24 9.9 WNW 26 37 14 20 - - 0.0
31/05:35pm 20.7 12.9 -0.6 24 10.1 WNW 30 48 16 26 - - 0.0
31/05:30pm 21.6 14.4 0.8 25 10.2 WNW 28 44 15 24 - - 0.0
31/05:14pm 20.6 13.3 -0.1 25 9.9 WNW 28 46 15 25 - - 0.0
31/05:00pm 21.2 14.7 2.5 29 9.5 WNW 26 44 14 24 - - 0.0
31/04:30pm 19.6 13.6 3.3 34 8.3 NNW 24 39 13 21 - - 0.0
31/04:00pm 19.0 13.7 3.2 35 8.0 NNW 20 33 11 18 - - 0.0
31/03:30pm 19.6 13.3 1.6 30 8.9 WNW 24 39 13 21 - - 0.0
31/03:00pm 19.8 11.9 1.3 29 9.1 WNW 32 52 17 28 - - 0.0
31/02:35pm 20.3 10.6 0.7 27 9.5 WNW 41 63 22 34 - - 0.0
31/02:30pm 20.6 11.4 1.5 28 9.5 WNW 39 56 21 30 - - 0.0
31/02:00pm 19.6 10.1 -0.4 26 9.5 WNW 39 61 21 33 - - 0.0
31/01:36pm 19.8 12.2 0.8 28 9.2 WNW 30 48 16 26 - - 0.0
31/01:30pm 19.3 13.0 1.3 30 8.8 WNW 24 39 13 21 - - 0.0
31/01:00pm 19.8 11.4 1.3 29 9.1 WNW 35 56 19 30 - - 0.0
31/12:44pm 19.6 11.7 1.1 29 9.0 WNW 32 50 17 27 - - 0.0
31/12:30pm 19.0 11.7 2.4 33 8.3 NW 30 44 16 24 - - 0.0
31/12:12pm 18.8 12.0 3.0 35 8.0 NW 28 48 15 26 - - 0.0
31/12:00pm 19.1 14.4 5.2 40 7.3 NW 19 28 10 15 - - 0.0
31/11:30am 17.6 11.2 3.1 38 7.3 N 26 37 14 20 - - 0.0
31/11:00am 16.7 10.6 2.7 39 6.9 NNW 24 37 13 20 - - 0.0
31/10:30am 16.3 10.2 2.7 40 6.7 N 24 33 13 18 - - 0.0
31/10:00am 16.2 11.0 2.2 39 6.8 NNW 19 26 10 14 - - 0.0
31/09:30am 15.7 10.9 2.8 42 6.3 NW 17 22 9 12 - - 0.0
31/09:00am 14.8 9.4 2.4 43 6.0 NW 20 28 11 15 - - 0.0
31/08:30am 14.1 8.4 0.7 40 6.2 WNW 20 28 11 15 - - 0.0
31/08:00am 13.6 7.9 0.3 40 6.1 WNW 20 26 11 14 - - 0.0
31/07:30am 13.2 7.4 -0.1 40 6.0 WNW 20 26 11 14 - - 0.0
31/07:00am 13.0 7.7 -0.3 40 6.0 WNW 17 20 9 11 - - 0.0
31/06:30am 12.8 7.9 -0.4 40 5.9 WNW 15 22 8 12 - - 0.0
31/06:00am 12.9 7.6 -0.7 39 6.1 WNW 17 24 9 13 - - 0.0
31/05:30am 12.6 7.3 -0.6 40 5.9 NW 17 20 9 11 - - 0.0
31/05:00am 12.6 7.6 -1.0 39 6.0 WNW 15 19 8 10 - - 0.0
31/04:30am 13.0 7.6 -1.0 38 6.2 WNW 17 22 9 12 - - 0.0
31/04:00am 13.1 7.3 -1.2 37 6.3 WNW 19 24 10 13 - - 0.0
31/03:30am 12.9 6.9 -1.4 37 6.3 WNW 20 24 11 13 - - 0.0
31/03:00am 12.8 6.9 -1.1 38 6.1 WNW 20 26 11 14 - - 0.0
31/02:30am 12.3 7.0 -0.9 40 5.8 NW 17 19 9 10 - - 0.0
31/02:00am 12.0 7.3 0.8 46 5.1 NNW 15 17 8 9 - - 0.0
31/01:30am 12.1 7.9 1.4 48 5.0 NNW 13 15 7 8 - - 0.0
31/01:00am 12.0 7.8 1.6 49 4.8 NW 13 19 7 10 - - 0.0
31/12:30am 12.0 7.7 1.3 48 4.9 NW 13 15 7 8 - - 0.0
31/12:00am 12.5 7.8 1.2 46 5.2 WNW 15 19 8 10 - - 0.0
 
Date/Time
EDT
Tmp

°C
App
Tmp
°C
Dew
Point
°C
Rel
Hum
%
Delta-T

°C
Wind Press
QNH
hPa
Press
MSL
hPa
Rain
since
9 am
mm
Dir
 
Spd
km/h
Gust
km/h
Spd
kts
Gust
kts
30/11:30pm 12.6 7.2 1.0 45 5.4 WNW 19 26 10 14 - - 0.0
30/11:00pm 13.3 7.3 1.0 43 5.7 WNW 22 30 12 16 - - 0.0
30/10:30pm 12.9 7.3 1.3 45 5.4 W 20 28 11 15 - - 0.0
30/10:00pm 13.1 7.6 1.8 46 5.3 W 20 30 11 16 - - 0.0
30/09:30pm 13.3 8.0 1.6 45 5.5 W 19 26 10 14 - - 0.0
30/09:00pm 13.1 8.2 1.8 46 5.3 W 17 26 9 14 - - 0.0
30/08:30pm 13.6 8.1 1.6 44 5.7 W 20 28 11 15 - - 0.0
30/08:00pm 13.9 8.3 1.5 43 5.8 WNW 20 30 11 16 - - 0.0
30/07:30pm 14.3 8.6 0.5 39 6.4 WNW 20 30 11 16 - - 0.0
30/07:00pm 15.4 8.6 0.8 37 6.9 WNW 26 37 14 20 - - 0.0
30/06:30pm 15.9 9.1 0.5 35 7.2 W 26 37 14 20 - - 0.0
30/06:00pm 16.3 9.2 1.6 37 7.1 WNW 28 41 15 22 - - 0.0
30/05:30pm 16.4 9.4 2.1 38 7.0 W 28 44 15 24 - - 0.0
30/05:00pm 16.2 8.2 1.9 38 6.9 W 33 46 18 25 - - 0.0
30/04:34pm 16.5 9.7 2.9 40 6.7 W 28 46 15 25 - - 0.0
30/04:30pm 16.3 9.9 3.0 41 6.6 W 26 46 14 25 - - 0.0
30/04:03pm 16.5 9.4 3.6 42 6.5 W 30 48 16 26 - - 0.0
30/04:00pm 16.3 8.7 3.0 41 6.6 W 32 48 17 26 - - 0.0
30/03:30pm 16.3 10.8 4.0 44 6.2 W 22 35 12 19 - - 0.0
30/03:00pm 15.7 10.2 3.8 45 6.0 WNW 22 33 12 18 - - 0.0
30/02:30pm 15.6 9.8 4.6 48 5.6 W 24 35 13 19 - - 0.0
30/02:00pm 15.3 10.4 4.9 50 5.3 WNW 20 35 11 19 - - 0.0
30/01:30pm 14.0 6.5 3.5 49 5.2 WNW 32 41 17 22 - - 0.0
30/01:00pm 13.8 7.9 4.1 52 4.8 W 24 33 13 18 - - 0.0
30/12:30pm 13.2 7.0 4.1 54 4.5 W 26 43 14 23 - - 0.0
30/12:00pm 12.8 7.0 4.3 56 4.2 WNW 24 39 13 21 - - 0.0
30/11:30am 12.4 5.7 3.6 55 4.3 W 28 46 15 25 - - 0.0
30/11:29am 12.3 5.5 3.0 53 4.5 W 28 46 15 25 - - 0.0
30/11:00am 12.5 8.2 3.5 54 4.4 WNW 15 41 8 22 - - 0.0
30/10:30am 11.3 4.0 2.6 55 4.1 W 30 50 16 27 - - 0.0
30/10:01am 10.9 4.2 3.7 61 3.5 W 28 46 15 25 - - 0.0
30/10:00am 10.9 4.6 3.7 61 3.5 W 26 43 14 23 - - 0.0
30/09:30am 9.9 3.5 3.0 62 3.3 W 26 39 14 21 - - 0.0
30/09:00am 9.6 3.1 2.5 61 3.3 W 26 37 14 20 - - 0.0
30/08:30am 9.4 4.6 2.7 63 3.1 W 17 24 9 13 - - 0.0
30/08:00am 8.6 3.2 2.4 65 2.9 W 20 32 11 17 - - 0.0
30/07:30am 7.8 3.0 2.7 70 2.3 W 17 26 9 14 - - 0.0
30/07:00am 7.4 2.7 2.9 73 2.1 W 17 20 9 11 - - 0.0
30/06:30am 7.3 2.5 2.8 73 2.1 W 17 24 9 13 - - 0.0
30/06:00am 7.4 2.3 2.9 73 2.1 W 19 24 10 13 - - 0.0
30/05:30am 7.4 2.7 2.9 73 2.1 WSW 17 26 9 14 - - 0.0
30/05:00am 7.4 2.3 3.1 74 2.0 W 19 26 10 14 - - 0.0
30/04:30am 7.0 1.9 2.9 75 1.9 W 19 24 10 13 - - 0.0
30/04:00am 7.0 2.6 2.9 75 1.9 W 15 20 8 11 - - 0.0
30/03:30am 7.1 2.8 3.0 75 1.9 WNW 15 19 8 10 - - 0.0
30/03:00am 7.0 3.0 2.7 74 2.0 WNW 13 17 7 9 - - 0.0
30/02:30am 7.1 3.1 2.8 74 2.0 NW 13 17 7 9 - - 0.0
30/02:00am 6.9 3.2 2.6 74 2.0 WNW 11 13 6 7 - - 0.0
30/01:30am 7.0 3.7 2.5 73 2.0 NW 9 13 5 7 - - 0.0
30/01:00am 7.2 3.6 2.7 73 2.1 WNW 11 15 6 8 - - 0.0
30/12:30am 7.4 3.8 2.9 73 2.1 WNW 11 17 6 9 - - 0.0
30/12:00am 7.9 3.5 2.8 70 2.4 W 15 20 8 11 - - 0.0
 
Date/Time
EDT
Tmp

°C
App
Tmp
°C
Dew
Point
°C
Rel
Hum
%
Delta-T

°C
Wind Press
QNH
hPa
Press
MSL
hPa
Rain
since
9 am
mm
Dir
 
Spd
km/h
Gust
km/h
Spd
kts
Gust
kts
29/11:30pm 8.3 3.2 3.0 69 2.5 WNW 19 26 10 14 - - 0.0
29/11:00pm 8.4 3.7 3.1 69 2.5 W 17 22 9 12 - - 0.0
29/10:30pm 8.4 4.1 3.1 69 2.5 W 15 22 8 12 - - 0.0
29/10:00pm 8.7 4.3 2.9 67 2.7 W 15 24 8 13 - - 0.0
29/09:30pm 8.8 4.5 3.0 67 2.7 W 15 20 8 11 - - 0.0
29/09:00pm 9.3 4.2 3.3 66 2.8 W 19 24 10 13 - - 0.0
29/08:30pm 9.5 5.3 3.7 67 2.8 W 15 26 8 14 - - 0.0
29/08:00pm 10.0 5.5 4.0 66 2.9 WNW 17 26 9 14 - - 0.0
29/07:30pm 10.7 6.1 3.7 62 3.4 WNW 17 26 9 14 - - 0.0
29/07:00pm 12.0 7.1 4.0 58 3.9 W 19 30 10 16 - - 0.0
29/06:30pm 12.9 8.5 4.6 57 4.1 W 17 26 9 14 - - 0.0
29/06:00pm 13.5 8.6 5.2 57 4.2 W 20 28 11 15 - - 0.0

Latest Capital City Observations: Canberra | Sydney | Melbourne | Brisbane | Adelaide | Perth | Hobart | Darwin

Other Formats:

Comma delimited format used in spreadsheet applications
http://www.bom.gov.au/fwo/IDN60903/IDN60903.95916.axf

JavaScript Object Notation format (JSON) in row-major order
http://www.bom.gov.au/fwo/IDN60903/IDN60903.95916.json